Etusivu
METAR-TAF:

METAR-TAF

Lentoasemat :

Dallasin kansainvälinen lentoasema

Dallas / Fort Worth, Texas, Yhdysvallat

Leveyspiiri: 32-53-49N, Pituuspiiri: 097-01-19W, korkeus merenpinnasta: 183 m

Tämänhetkinen sää

Tämä raportti tehtiin 53 minuuttia sitten, kello 19.53 UTC
Tuuli 7 kn idästä/kaakosta
Lämpötila 14°C
Kosteus 38%
Ilmanpaine 1025 hPa
Näkyvyys: 16.1 km
Muutamia pilviä 18000 ft:n korkeudessa
Hajonneita pilviä 25000 ft:n korkeudessa

METAR: KDFW 211953Z 11007KT 10SM FEW180 BKN250 14/00 A3028 RMK AO2 SLP254 T01440000

Aika: 14:46 (20:46 UTC)

Sääennuste

Tämä raportti tehtiin 3 tuntia ja 23 minuuttia sitten, kello 17.23 UTC
Ennuste voimassa 21. päivästä klo 18 UTC - 22. päivään klo 24 UTC
Tuuli 5 kn kaakosta
Näkyvyys: 10 km
Hajonneita pilviä 18000 ft:n korkeudessa

TAF: KDFW 211723Z 2118/2224 13005KT P6SM BKN180

Säähavainnot ja -ennusteet yli 4000 lentoasemalta (METAR- ja TAF-raportit).

Käytössä olevat sääasemat on merkitty karttaan keltaisilla ja punaisilla pisteillä.

Aseta hiiri pisteen päälle nähdäksesi sääaseman nimen.

Klikkaa sitten nähdäksesi säähavainnot ja -ennusteet.

Kartan vaihtaminen: klikkaa mustalla rastilla varustettuja vihreitä pisteitä, niin voit zoomata sisään; viivalla varustettua vihreää pistettä, niin voit zoomata ulos tai vihreitä nuolia, niin pääset viereisille kartoille.


METAR-TAF: